sensor_id;sensor_type;location;lat;lon;timestamp;P1;durP1;ratioP1;P2;durP2;ratioP2
71572;SDS011;59408;51.032;9.410;2024-01-30T00:00:04;14.60;;;6.90;;
71572;SDS011;59408;51.032;9.410;2024-01-30T00:02:32;12.68;;;5.90;;
71572;SDS011;59408;51.032;9.410;2024-01-30T00:05:00;13.63;;;6.60;;
71572;SDS011;59408;51.032;9.410;2024-01-30T00:07:26;13.20;;;6.07;;
71572;SDS011;59408;51.032;9.410;2024-01-30T00:09:53;16.08;;;6.95;;
71572;SDS011;59408;51.032;9.410;2024-01-30T00:12:20;13.90;;;6.78;;
71572;SDS011;59408;51.032;9.410;2024-01-30T00:14:46;13.73;;;7.28;;
71572;SDS011;59408;51.032;9.410;2024-01-30T00:17:13;14.68;;;7.50;;
71572;SDS011;59408;51.032;9.410;2024-01-30T00:19:40;14.87;;;6.87;;
71572;SDS011;59408;51.032;9.410;2024-01-30T00:22:08;15.10;;;7.53;;
71572;SDS011;59408;51.032;9.410;2024-01-30T00:24:34;16.42;;;7.22;;
71572;SDS011;59408;51.032;9.410;2024-01-30T00:27:01;15.25;;;7.47;;
71572;SDS011;59408;51.032;9.410;2024-01-30T00:29:27;14.38;;;7.32;;
71572;SDS011;59408;51.032;9.410;2024-01-30T00:31:54;14.10;;;7.10;;
71572;SDS011;59408;51.032;9.410;2024-01-30T00:34:20;15.15;;;6.57;;
71572;SDS011;59408;51.032;9.410;2024-01-30T00:36:47;14.73;;;7.38;;
71572;SDS011;59408;51.032;9.410;2024-01-30T00:39:15;14.35;;;7.35;;
71572;SDS011;59408;51.032;9.410;2024-01-30T00:41:42;13.30;;;6.82;;
71572;SDS011;59408;51.032;9.410;2024-01-30T00:44:08;13.93;;;6.63;;
71572;SDS011;59408;51.032;9.410;2024-01-30T00:46:35;14.68;;;6.45;;
71572;SDS011;59408;51.032;9.410;2024-01-30T00:49:02;12.80;;;6.57;;
71572;SDS011;59408;51.032;9.410;2024-01-30T00:51:29;11.85;;;5.63;;
71572;SDS011;59408;51.032;9.410;2024-01-30T00:53:55;11.68;;;6.07;;
71572;SDS011;59408;51.032;9.410;2024-01-30T00:56:23;11.23;;;5.53;;
71572;SDS011;59408;51.032;9.410;2024-01-30T00:58:50;13.50;;;6.00;;
71572;SDS011;59408;51.032;9.410;2024-01-30T01:01:16;11.95;;;5.60;;
71572;SDS011;59408;51.032;9.410;2024-01-30T01:03:43;12.63;;;6.07;;
71572;SDS011;59408;51.032;9.410;2024-01-30T01:06:10;14.38;;;6.25;;
71572;SDS011;59408;51.032;9.410;2024-01-30T01:08:36;12.27;;;5.83;;
71572;SDS011;59408;51.032;9.410;2024-01-30T01:11:03;11.80;;;5.93;;
71572;SDS011;59408;51.032;9.410;2024-01-30T01:13:31;13.40;;;6.20;;
71572;SDS011;59408;51.032;9.410;2024-01-30T01:15:58;12.40;;;5.93;;
71572;SDS011;59408;51.032;9.410;2024-01-30T01:18:24;13.60;;;6.00;;
71572;SDS011;59408;51.032;9.410;2024-01-30T01:20:51;11.50;;;5.63;;
71572;SDS011;59408;51.032;9.410;2024-01-30T01:23:17;15.07;;;6.25;;
71572;SDS011;59408;51.032;9.410;2024-01-30T01:25:44;11.90;;;6.28;;
71572;SDS011;59408;51.032;9.410;2024-01-30T01:28:10;12.45;;;6.00;;
71572;SDS011;59408;51.032;9.410;2024-01-30T01:30:38;12.57;;;6.20;;
71572;SDS011;59408;51.032;9.410;2024-01-30T01:33:05;13.43;;;6.33;;
71572;SDS011;59408;51.032;9.410;2024-01-30T01:35:32;13.35;;;6.78;;
71572;SDS011;59408;51.032;9.410;2024-01-30T01:37:58;12.93;;;6.35;;
71572;SDS011;59408;51.032;9.410;2024-01-30T01:40:25;13.82;;;6.55;;
71572;SDS011;59408;51.032;9.410;2024-01-30T01:42:52;14.30;;;7.20;;
71572;SDS011;59408;51.032;9.410;2024-01-30T01:45:21;14.83;;;7.10;;
71572;SDS011;59408;51.032;9.410;2024-01-30T01:47:49;17.08;;;7.45;;
71572;SDS011;59408;51.032;9.410;2024-01-30T01:50:17;15.80;;;7.18;;
71572;SDS011;59408;51.032;9.410;2024-01-30T01:52:45;15.43;;;7.00;;
71572;SDS011;59408;51.032;9.410;2024-01-30T01:55:13;15.57;;;6.85;;
71572;SDS011;59408;51.032;9.410;2024-01-30T01:57:40;15.37;;;7.20;;
71572;SDS011;59408;51.032;9.410;2024-01-30T02:00:08;15.20;;;6.70;;
71572;SDS011;59408;51.032;9.410;2024-01-30T02:02:36;15.82;;;7.07;;
71572;SDS011;59408;51.032;9.410;2024-01-30T02:05:06;14.18;;;6.75;;
71572;SDS011;59408;51.032;9.410;2024-01-30T02:07:34;13.27;;;6.75;;
71572;SDS011;59408;51.032;9.410;2024-01-30T02:10:01;14.00;;;6.00;;
71572;SDS011;59408;51.032;9.410;2024-01-30T02:12:28;13.30;;;6.30;;
71572;SDS011;59408;51.032;9.410;2024-01-30T02:14:55;15.40;;;6.53;;
71572;SDS011;59408;51.032;9.410;2024-01-30T02:17:22;14.13;;;6.05;;
71572;SDS011;59408;51.032;9.410;2024-01-30T02:19:50;14.63;;;6.63;;
71572;SDS011;59408;51.032;9.410;2024-01-30T02:22:18;12.63;;;5.70;;
71572;SDS011;59408;51.032;9.410;2024-01-30T02:24:45;14.13;;;6.18;;
71572;SDS011;59408;51.032;9.410;2024-01-30T02:27:12;13.07;;;6.70;;
71572;SDS011;59408;51.032;9.410;2024-01-30T02:29:38;12.85;;;6.28;;
71572;SDS011;59408;51.032;9.410;2024-01-30T02:32:06;13.15;;;7.28;;
71572;SDS011;59408;51.032;9.410;2024-01-30T02:34:33;13.73;;;6.40;;
71572;SDS011;59408;51.032;9.410;2024-01-30T02:36:59;12.90;;;6.70;;
71572;SDS011;59408;51.032;9.410;2024-01-30T02:39:27;12.10;;;6.45;;
71572;SDS011;59408;51.032;9.410;2024-01-30T02:41:54;14.40;;;6.50;;
71572;SDS011;59408;51.032;9.410;2024-01-30T02:44:20;15.90;;;6.63;;
71572;SDS011;59408;51.032;9.410;2024-01-30T02:46:47;14.07;;;6.63;;
71572;SDS011;59408;51.032;9.410;2024-01-30T02:49:14;13.68;;;6.35;;
71572;SDS011;59408;51.032;9.410;2024-01-30T02:51:41;14.55;;;6.53;;
71572;SDS011;59408;51.032;9.410;2024-01-30T02:54:07;14.02;;;6.82;;
71572;SDS011;59408;51.032;9.410;2024-01-30T02:56:35;14.30;;;7.25;;
71572;SDS011;59408;51.032;9.410;2024-01-30T02:59:02;14.00;;;6.53;;
71572;SDS011;59408;51.032;9.410;2024-01-30T03:01:28;14.73;;;6.50;;
71572;SDS011;59408;51.032;9.410;2024-01-30T03:03:55;14.82;;;7.50;;
71572;SDS011;59408;51.032;9.410;2024-01-30T03:06:21;16.55;;;6.30;;
71572;SDS011;59408;51.032;9.410;2024-01-30T03:08:48;15.70;;;7.18;;
71572;SDS011;59408;51.032;9.410;2024-01-30T03:11:14;13.47;;;6.43;;
71572;SDS011;59408;51.032;9.410;2024-01-30T03:13:43;13.60;;;6.40;;
71572;SDS011;59408;51.032;9.410;2024-01-30T03:16:09;11.63;;;6.05;;
71572;SDS011;59408;51.032;9.410;2024-01-30T03:18:36;15.90;;;6.75;;
71572;SDS011;59408;51.032;9.410;2024-01-30T03:21:03;12.82;;;6.72;;
71572;SDS011;59408;51.032;9.410;2024-01-30T03:23:30;12.37;;;5.30;;
71572;SDS011;59408;51.032;9.410;2024-01-30T03:25:57;13.27;;;6.28;;
71572;SDS011;59408;51.032;9.410;2024-01-30T03:28:23;15.93;;;6.70;;
71572;SDS011;59408;51.032;9.410;2024-01-30T03:30:51;14.57;;;5.72;;
71572;SDS011;59408;51.032;9.410;2024-01-30T03:33:18;13.95;;;6.63;;
71572;SDS011;59408;51.032;9.410;2024-01-30T03:35:44;12.70;;;5.27;;
71572;SDS011;59408;51.032;9.410;2024-01-30T03:38:11;12.30;;;5.43;;
71572;SDS011;59408;51.032;9.410;2024-01-30T03:40:37;12.77;;;6.43;;
71572;SDS011;59408;51.032;9.410;2024-01-30T03:43:04;12.90;;;6.15;;
71572;SDS011;59408;51.032;9.410;2024-01-30T03:45:31;11.68;;;6.47;;
71572;SDS011;59408;51.032;9.410;2024-01-30T03:47:58;11.20;;;5.57;;
71572;SDS011;59408;51.032;9.410;2024-01-30T03:50:25;12.80;;;6.20;;
71572;SDS011;59408;51.032;9.410;2024-01-30T03:52:52;12.57;;;5.85;;
71572;SDS011;59408;51.032;9.410;2024-01-30T03:55:18;12.65;;;5.53;;
71572;SDS011;59408;51.032;9.410;2024-01-30T03:57:45;11.55;;;5.93;;
71572;SDS011;59408;51.032;9.410;2024-01-30T04:00:12;13.53;;;5.80;;
71572;SDS011;59408;51.032;9.410;2024-01-30T04:02:40;12.98;;;5.60;;
71572;SDS011;59408;51.032;9.410;2024-01-30T04:05:08;14.70;;;6.82;;
71572;SDS011;59408;51.032;9.410;2024-01-30T04:07:34;12.65;;;5.95;;
71572;SDS011;59408;51.032;9.410;2024-01-30T04:10:01;12.20;;;5.82;;
71572;SDS011;59408;51.032;9.410;2024-01-30T04:12:29;12.20;;;5.70;;
71572;SDS011;59408;51.032;9.410;2024-01-30T04:14:55;13.38;;;6.10;;
71572;SDS011;59408;51.032;9.410;2024-01-30T04:17:22;12.38;;;6.30;;
71572;SDS011;59408;51.032;9.410;2024-01-30T04:19:49;12.75;;;5.75;;
71572;SDS011;59408;51.032;9.410;2024-01-30T04:22:17;11.73;;;5.53;;
71572;SDS011;59408;51.032;9.410;2024-01-30T04:24:43;14.83;;;6.23;;
71572;SDS011;59408;51.032;9.410;2024-01-30T04:27:10;13.98;;;6.10;;
71572;SDS011;59408;51.032;9.410;2024-01-30T04:29:36;13.43;;;6.28;;
71572;SDS011;59408;51.032;9.410;2024-01-30T04:32:03;13.63;;;6.05;;
71572;SDS011;59408;51.032;9.410;2024-01-30T04:34:30;14.20;;;5.85;;
71572;SDS011;59408;51.032;9.410;2024-01-30T04:36:57;11.50;;;5.63;;
71572;SDS011;59408;51.032;9.410;2024-01-30T04:39:25;11.48;;;5.78;;
71572;SDS011;59408;51.032;9.410;2024-01-30T04:41:51;13.30;;;6.47;;
71572;SDS011;59408;51.032;9.410;2024-01-30T04:44:18;12.95;;;5.97;;
71572;SDS011;59408;51.032;9.410;2024-01-30T04:46:44;15.52;;;6.35;;
71572;SDS011;59408;51.032;9.410;2024-01-30T04:49:11;11.67;;;5.50;;
71572;SDS011;59408;51.032;9.410;2024-01-30T04:51:38;11.40;;;5.30;;
71572;SDS011;59408;51.032;9.410;2024-01-30T04:54:04;12.40;;;5.97;;
71572;SDS011;59408;51.032;9.410;2024-01-30T04:56:32;13.02;;;5.30;;
71572;SDS011;59408;51.032;9.410;2024-01-30T04:58:59;13.32;;;6.10;;
71572;SDS011;59408;51.032;9.410;2024-01-30T05:01:25;11.03;;;5.37;;
71572;SDS011;59408;51.032;9.410;2024-01-30T05:03:52;13.10;;;6.40;;
71572;SDS011;59408;51.032;9.410;2024-01-30T05:06:25;11.73;;;5.97;;
71572;SDS011;59408;51.032;9.410;2024-01-30T05:08:52;12.85;;;6.78;;
71572;SDS011;59408;51.032;9.410;2024-01-30T05:11:18;12.88;;;6.05;;
71572;SDS011;59408;51.032;9.410;2024-01-30T05:13:46;13.53;;;6.43;;
71572;SDS011;59408;51.032;9.410;2024-01-30T05:16:13;14.77;;;6.53;;
71572;SDS011;59408;51.032;9.410;2024-01-30T05:18:39;14.50;;;6.53;;
71572;SDS011;59408;51.032;9.410;2024-01-30T05:21:06;12.77;;;6.07;;
71572;SDS011;59408;51.032;9.410;2024-01-30T05:23:33;14.10;;;6.50;;
71572;SDS011;59408;51.032;9.410;2024-01-30T05:25:59;13.70;;;6.67;;
71572;SDS011;59408;51.032;9.410;2024-01-30T05:28:26;14.68;;;6.50;;
71572;SDS011;59408;51.032;9.410;2024-01-30T05:30:54;14.20;;;6.85;;
71572;SDS011;59408;51.032;9.410;2024-01-30T05:33:20;13.70;;;7.10;;
71572;SDS011;59408;51.032;9.410;2024-01-30T05:35:48;16.65;;;8.52;;
71572;SDS011;59408;51.032;9.410;2024-01-30T05:38:15;16.17;;;7.57;;
71572;SDS011;59408;51.032;9.410;2024-01-30T05:40:42;18.25;;;9.02;;
71572;SDS011;59408;51.032;9.410;2024-01-30T05:43:08;17.27;;;9.35;;
71572;SDS011;59408;51.032;9.410;2024-01-30T05:45:35;19.27;;;9.35;;
71572;SDS011;59408;51.032;9.410;2024-01-30T05:48:03;19.00;;;8.50;;
71572;SDS011;59408;51.032;9.410;2024-01-30T05:50:30;16.67;;;7.97;;
71572;SDS011;59408;51.032;9.410;2024-01-30T05:52:57;16.20;;;8.30;;
71572;SDS011;59408;51.032;9.410;2024-01-30T05:55:23;17.50;;;7.78;;
71572;SDS011;59408;51.032;9.410;2024-01-30T05:57:50;16.35;;;8.40;;
71572;SDS011;59408;51.032;9.410;2024-01-30T06:00:17;16.98;;;7.97;;
71572;SDS011;59408;51.032;9.410;2024-01-30T06:02:44;16.53;;;7.73;;
71572;SDS011;59408;51.032;9.410;2024-01-30T06:05:12;17.15;;;8.07;;
71572;SDS011;59408;51.032;9.410;2024-01-30T06:07:39;17.50;;;8.23;;
71572;SDS011;59408;51.032;9.410;2024-01-30T06:10:06;17.60;;;7.85;;
71572;SDS011;59408;51.032;9.410;2024-01-30T06:12:33;17.55;;;8.32;;
71572;SDS011;59408;51.032;9.410;2024-01-30T06:15:00;16.63;;;7.70;;
71572;SDS011;59408;51.032;9.410;2024-01-30T06:17:26;17.27;;;7.65;;
71572;SDS011;59408;51.032;9.410;2024-01-30T06:19:54;16.67;;;8.73;;
71572;SDS011;59408;51.032;9.410;2024-01-30T06:22:22;15.35;;;7.68;;
71572;SDS011;59408;51.032;9.410;2024-01-30T06:24:49;14.10;;;7.18;;
71572;SDS011;59408;51.032;9.410;2024-01-30T06:27:15;13.63;;;7.00;;
71572;SDS011;59408;51.032;9.410;2024-01-30T06:29:42;15.98;;;7.60;;
71572;SDS011;59408;51.032;9.410;2024-01-30T06:32:09;16.33;;;8.00;;
71572;SDS011;59408;51.032;9.410;2024-01-30T06:34:36;15.40;;;7.60;;
71572;SDS011;59408;51.032;9.410;2024-01-30T06:37:03;15.30;;;7.78;;
71572;SDS011;59408;51.032;9.410;2024-01-30T06:39:31;14.27;;;7.33;;
71572;SDS011;59408;51.032;9.410;2024-01-30T06:41:58;17.63;;;8.63;;
71572;SDS011;59408;51.032;9.410;2024-01-30T06:44:24;19.25;;;9.00;;
71572;SDS011;59408;51.032;9.410;2024-01-30T06:46:51;17.23;;;8.90;;
71572;SDS011;59408;51.032;9.410;2024-01-30T06:49:17;16.20;;;8.68;;
71572;SDS011;59408;51.032;9.410;2024-01-30T06:51:44;16.77;;;8.43;;
71572;SDS011;59408;51.032;9.410;2024-01-30T06:54:10;17.58;;;8.63;;
71572;SDS011;59408;51.032;9.410;2024-01-30T06:56:38;17.45;;;8.50;;
71572;SDS011;59408;51.032;9.410;2024-01-30T06:59:05;15.77;;;7.32;;
71572;SDS011;59408;51.032;9.410;2024-01-30T07:01:31;15.88;;;7.45;;
71572;SDS011;59408;51.032;9.410;2024-01-30T07:03:58;13.00;;;6.97;;
71572;SDS011;59408;51.032;9.410;2024-01-30T07:06:25;16.20;;;7.60;;
71572;SDS011;59408;51.032;9.410;2024-01-30T07:08:51;16.58;;;7.95;;
71572;SDS011;59408;51.032;9.410;2024-01-30T07:11:18;15.60;;;8.05;;
71572;SDS011;59408;51.032;9.410;2024-01-30T07:13:46;20.52;;;10.85;;
71572;SDS011;59408;51.032;9.410;2024-01-30T07:16:13;18.50;;;9.73;;
71572;SDS011;59408;51.032;9.410;2024-01-30T07:18:39;18.02;;;9.60;;
71572;SDS011;59408;51.032;9.410;2024-01-30T07:21:06;20.20;;;9.68;;
71572;SDS011;59408;51.032;9.410;2024-01-30T07:23:33;18.77;;;9.23;;
71572;SDS011;59408;51.032;9.410;2024-01-30T07:25:59;18.77;;;9.07;;
71572;SDS011;59408;51.032;9.410;2024-01-30T07:28:26;16.90;;;8.20;;
71572;SDS011;59408;51.032;9.410;2024-01-30T07:30:54;16.70;;;8.40;;
71572;SDS011;59408;51.032;9.410;2024-01-30T07:33:20;17.55;;;8.73;;
71572;SDS011;59408;51.032;9.410;2024-01-30T07:35:47;21.52;;;10.80;;
71572;SDS011;59408;51.032;9.410;2024-01-30T07:38:14;19.52;;;10.30;;
71572;SDS011;59408;51.032;9.410;2024-01-30T07:40:40;19.47;;;9.63;;
71572;SDS011;59408;51.032;9.410;2024-01-30T07:43:07;26.17;;;10.13;;
71572;SDS011;59408;51.032;9.410;2024-01-30T07:45:34;20.88;;;10.63;;
71572;SDS011;59408;51.032;9.410;2024-01-30T07:48:02;21.55;;;10.70;;
71572;SDS011;59408;51.032;9.410;2024-01-30T07:50:28;19.23;;;9.40;;
71572;SDS011;59408;51.032;9.410;2024-01-30T07:52:55;17.07;;;8.43;;
71572;SDS011;59408;51.032;9.410;2024-01-30T07:55:22;18.85;;;8.32;;
71572;SDS011;59408;51.032;9.410;2024-01-30T07:57:49;19.80;;;9.00;;
71572;SDS011;59408;51.032;9.410;2024-01-30T08:00:18;21.35;;;9.63;;
71572;SDS011;59408;51.032;9.410;2024-01-30T08:02:45;22.17;;;10.60;;
71572;SDS011;59408;51.032;9.410;2024-01-30T08:05:13;22.80;;;10.63;;
71572;SDS011;59408;51.032;9.410;2024-01-30T08:07:40;25.02;;;10.65;;
71572;SDS011;59408;51.032;9.410;2024-01-30T08:10:07;19.48;;;10.75;;
71572;SDS011;59408;51.032;9.410;2024-01-30T08:12:34;19.35;;;9.77;;
71572;SDS011;59408;51.032;9.410;2024-01-30T08:15:00;19.45;;;10.18;;
71572;SDS011;59408;51.032;9.410;2024-01-30T08:17:26;19.03;;;9.23;;
71572;SDS011;59408;51.032;9.410;2024-01-30T08:19:53;18.08;;;9.05;;
71572;SDS011;59408;51.032;9.410;2024-01-30T08:22:21;20.52;;;9.95;;
71572;SDS011;59408;51.032;9.410;2024-01-30T08:24:48;21.95;;;9.88;;
71572;SDS011;59408;51.032;9.410;2024-01-30T08:27:14;18.92;;;9.60;;
71572;SDS011;59408;51.032;9.410;2024-01-30T08:29:41;19.63;;;10.53;;
71572;SDS011;59408;51.032;9.410;2024-01-30T08:32:08;22.60;;;10.93;;
71572;SDS011;59408;51.032;9.410;2024-01-30T08:34:34;24.58;;;12.40;;
71572;SDS011;59408;51.032;9.410;2024-01-30T08:37:01;25.48;;;13.57;;
71572;SDS011;59408;51.032;9.410;2024-01-30T08:39:29;25.88;;;13.88;;
71572;SDS011;59408;51.032;9.410;2024-01-30T08:41:56;25.33;;;14.10;;
71572;SDS011;59408;51.032;9.410;2024-01-30T08:44:22;26.92;;;13.77;;
71572;SDS011;59408;51.032;9.410;2024-01-30T08:46:49;25.73;;;13.60;;
71572;SDS011;59408;51.032;9.410;2024-01-30T08:49:16;26.40;;;13.00;;
71572;SDS011;59408;51.032;9.410;2024-01-30T08:51:43;25.70;;;13.20;;
71572;SDS011;59408;51.032;9.410;2024-01-30T08:54:09;24.53;;;12.03;;
71572;SDS011;59408;51.032;9.410;2024-01-30T08:56:37;22.55;;;11.65;;
71572;SDS011;59408;51.032;9.410;2024-01-30T08:59:03;23.98;;;11.60;;
71572;SDS011;59408;51.032;9.410;2024-01-30T09:01:30;20.83;;;10.85;;
71572;SDS011;59408;51.032;9.410;2024-01-30T09:03:56;20.13;;;10.30;;
71572;SDS011;59408;51.032;9.410;2024-01-30T09:06:23;18.17;;;9.40;;
71572;SDS011;59408;51.032;9.410;2024-01-30T09:08:50;20.10;;;9.52;;
71572;SDS011;59408;51.032;9.410;2024-01-30T09:11:16;19.17;;;10.18;;
71572;SDS011;59408;51.032;9.410;2024-01-30T09:13:44;17.85;;;8.73;;
71572;SDS011;59408;51.032;9.410;2024-01-30T09:16:11;17.83;;;8.88;;
71572;SDS011;59408;51.032;9.410;2024-01-30T09:18:37;17.80;;;9.00;;
71572;SDS011;59408;51.032;9.410;2024-01-30T09:21:04;20.73;;;9.77;;
71572;SDS011;59408;51.032;9.410;2024-01-30T09:23:31;18.77;;;9.70;;
71572;SDS011;59408;51.032;9.410;2024-01-30T09:25:57;24.70;;;9.90;;
71572;SDS011;59408;51.032;9.410;2024-01-30T09:28:24;19.58;;;10.95;;
71572;SDS011;59408;51.032;9.410;2024-01-30T09:30:54;18.73;;;9.30;;
71572;SDS011;59408;51.032;9.410;2024-01-30T09:33:20;20.13;;;9.98;;
71572;SDS011;59408;51.032;9.410;2024-01-30T09:35:47;18.08;;;9.40;;
71572;SDS011;59408;51.032;9.410;2024-01-30T09:38:14;19.60;;;10.05;;
71572;SDS011;59408;51.032;9.410;2024-01-30T09:40:40;24.60;;;12.55;;
71572;SDS011;59408;51.032;9.410;2024-01-30T09:43:07;20.30;;;10.73;;
71572;SDS011;59408;51.032;9.410;2024-01-30T09:45:34;23.40;;;12.13;;
71572;SDS011;59408;51.032;9.410;2024-01-30T09:48:03;22.75;;;11.00;;
71572;SDS011;59408;51.032;9.410;2024-01-30T09:50:30;20.70;;;10.68;;
71572;SDS011;59408;51.032;9.410;2024-01-30T09:52:57;19.42;;;10.23;;
71572;SDS011;59408;51.032;9.410;2024-01-30T09:55:25;20.20;;;11.37;;
71572;SDS011;59408;51.032;9.410;2024-01-30T09:57:52;18.95;;;10.38;;
71572;SDS011;59408;51.032;9.410;2024-01-30T10:00:19;19.42;;;9.90;;
71572;SDS011;59408;51.032;9.410;2024-01-30T10:02:45;20.20;;;9.65;;
71572;SDS011;59408;51.032;9.410;2024-01-30T10:05:14;16.83;;;9.05;;
71572;SDS011;59408;51.032;9.410;2024-01-30T10:07:49;18.97;;;9.03;;
71572;SDS011;59408;51.032;9.410;2024-01-30T10:10:18;16.95;;;9.60;;
71572;SDS011;59408;51.032;9.410;2024-01-30T10:12:45;15.65;;;8.77;;
71572;SDS011;59408;51.032;9.410;2024-01-30T10:15:11;16.65;;;8.55;;
71572;SDS011;59408;51.032;9.410;2024-01-30T10:17:40;16.70;;;8.30;;
71572;SDS011;59408;51.032;9.410;2024-01-30T10:20:07;14.70;;;8.10;;
71572;SDS011;59408;51.032;9.410;2024-01-30T10:22:36;15.80;;;9.25;;
71572;SDS011;59408;51.032;9.410;2024-01-30T10:25:03;23.17;;;11.73;;
71572;SDS011;59408;51.032;9.410;2024-01-30T10:27:32;18.30;;;9.05;;
71572;SDS011;59408;51.032;9.410;2024-01-30T10:29:58;21.20;;;11.50;;
71572;SDS011;59408;51.032;9.410;2024-01-30T10:32:25;22.87;;;11.20;;
71572;SDS011;59408;51.032;9.410;2024-01-30T10:34:51;19.00;;;9.52;;
71572;SDS011;59408;51.032;9.410;2024-01-30T10:37:18;20.05;;;9.25;;
71572;SDS011;59408;51.032;9.410;2024-01-30T10:39:47;15.15;;;8.32;;
71572;SDS011;59408;51.032;9.410;2024-01-30T10:42:15;15.82;;;7.90;;
71572;SDS011;59408;51.032;9.410;2024-01-30T10:44:47;13.07;;;7.37;;
71572;SDS011;59408;51.032;9.410;2024-01-30T10:47:21;15.32;;;7.55;;
71572;SDS011;59408;51.032;9.410;2024-01-30T10:49:52;16.27;;;8.27;;
71572;SDS011;59408;51.032;9.410;2024-01-30T10:52:20;14.20;;;7.45;;
71572;SDS011;59408;51.032;9.410;2024-01-30T10:54:50;18.35;;;9.00;;
71572;SDS011;59408;51.032;9.410;2024-01-30T10:57:17;15.57;;;8.47;;
71572;SDS011;59408;51.032;9.410;2024-01-30T10:59:44;15.73;;;8.43;;
71572;SDS011;59408;51.032;9.410;2024-01-30T11:02:12;17.23;;;9.07;;
71572;SDS011;59408;51.032;9.410;2024-01-30T11:04:41;16.10;;;7.78;;
71572;SDS011;59408;51.032;9.410;2024-01-30T11:07:14;13.90;;;8.18;;
71572;SDS011;59408;51.032;9.410;2024-01-30T11:09:47;13.93;;;7.30;;
71572;SDS011;59408;51.032;9.410;2024-01-30T11:12:16;16.42;;;7.82;;
71572;SDS011;59408;51.032;9.410;2024-01-30T11:14:43;14.45;;;7.85;;
71572;SDS011;59408;51.032;9.410;2024-01-30T11:17:09;15.13;;;7.63;;
71572;SDS011;59408;51.032;9.410;2024-01-30T11:19:36;14.35;;;7.43;;
71572;SDS011;59408;51.032;9.410;2024-01-30T11:22:03;13.73;;;7.27;;
71572;SDS011;59408;51.032;9.410;2024-01-30T11:24:39;13.52;;;7.35;;
71572;SDS011;59408;51.032;9.410;2024-01-30T11:27:09;14.07;;;7.25;;
71572;SDS011;59408;51.032;9.410;2024-01-30T11:29:36;21.33;;;10.88;;
71572;SDS011;59408;51.032;9.410;2024-01-30T11:32:03;17.77;;;9.55;;
71572;SDS011;59408;51.032;9.410;2024-01-30T11:34:30;14.10;;;7.87;;
71572;SDS011;59408;51.032;9.410;2024-01-30T11:36:59;14.52;;;8.50;;
71572;SDS011;59408;51.032;9.410;2024-01-30T11:39:30;16.90;;;8.60;;
71572;SDS011;59408;51.032;9.410;2024-01-30T11:41:56;14.25;;;8.30;;
71572;SDS011;59408;51.032;9.410;2024-01-30T11:44:26;14.48;;;8.20;;
71572;SDS011;59408;51.032;9.410;2024-01-30T11:46:52;14.07;;;8.07;;
71572;SDS011;59408;51.032;9.410;2024-01-30T11:49:19;15.45;;;8.05;;
71572;SDS011;59408;51.032;9.410;2024-01-30T11:51:46;12.98;;;7.38;;
71572;SDS011;59408;51.032;9.410;2024-01-30T11:54:13;13.93;;;7.60;;
71572;SDS011;59408;51.032;9.410;2024-01-30T11:56:40;14.68;;;7.78;;
71572;SDS011;59408;51.032;9.410;2024-01-30T11:59:09;14.47;;;7.77;;
71572;SDS011;59408;51.032;9.410;2024-01-30T12:01:37;13.60;;;7.65;;
71572;SDS011;59408;51.032;9.410;2024-01-30T12:04:04;14.68;;;7.78;;
71572;SDS011;59408;51.032;9.410;2024-01-30T12:06:31;15.45;;;7.68;;
71572;SDS011;59408;51.032;9.410;2024-01-30T12:08:58;13.88;;;7.70;;
71572;SDS011;59408;51.032;9.410;2024-01-30T12:11:25;12.80;;;6.83;;
71572;SDS011;59408;51.032;9.410;2024-01-30T12:13:52;14.55;;;7.43;;
71572;SDS011;59408;51.032;9.410;2024-01-30T12:16:19;15.57;;;7.32;;
71572;SDS011;59408;51.032;9.410;2024-01-30T12:18:47;14.68;;;7.32;;
71572;SDS011;59408;51.032;9.410;2024-01-30T12:21:15;15.05;;;7.95;;
71572;SDS011;59408;51.032;9.410;2024-01-30T12:23:42;12.90;;;7.23;;
71572;SDS011;59408;51.032;9.410;2024-01-30T12:26:09;14.45;;;7.75;;
71572;SDS011;59408;51.032;9.410;2024-01-30T12:28:36;13.32;;;7.70;;
71572;SDS011;59408;51.032;9.410;2024-01-30T12:31:03;13.20;;;7.85;;
71572;SDS011;59408;51.032;9.410;2024-01-30T12:33:30;12.18;;;7.05;;
71572;SDS011;59408;51.032;9.410;2024-01-30T12:36:00;14.87;;;7.57;;
71572;SDS011;59408;51.032;9.410;2024-01-30T12:38:29;15.00;;;7.70;;
71572;SDS011;59408;51.032;9.410;2024-01-30T12:40:56;15.05;;;8.30;;
71572;SDS011;59408;51.032;9.410;2024-01-30T12:43:22;17.38;;;8.73;;
71572;SDS011;59408;51.032;9.410;2024-01-30T12:46:03;14.40;;;7.93;;
71572;SDS011;59408;51.032;9.410;2024-01-30T12:48:30;16.07;;;7.67;;
71572;SDS011;59408;51.032;9.410;2024-01-30T12:50:56;14.23;;;6.80;;
71572;SDS011;59408;51.032;9.410;2024-01-30T12:53:25;11.60;;;7.03;;
71572;SDS011;59408;51.032;9.410;2024-01-30T12:55:51;15.18;;;7.60;;
71572;SDS011;59408;51.032;9.410;2024-01-30T12:58:18;12.95;;;6.90;;
71572;SDS011;59408;51.032;9.410;2024-01-30T13:00:44;13.17;;;6.97;;
71572;SDS011;59408;51.032;9.410;2024-01-30T13:03:11;13.90;;;7.30;;
71572;SDS011;59408;51.032;9.410;2024-01-30T13:05:37;13.50;;;7.07;;
71572;SDS011;59408;51.032;9.410;2024-01-30T13:08:06;14.07;;;7.13;;
71572;SDS011;59408;51.032;9.410;2024-01-30T13:10:32;12.68;;;6.45;;
71572;SDS011;59408;51.032;9.410;2024-01-30T13:12:59;16.20;;;6.83;;
71572;SDS011;59408;51.032;9.410;2024-01-30T13:15:25;12.50;;;7.10;;
71572;SDS011;59408;51.032;9.410;2024-01-30T13:17:52;12.55;;;7.25;;
71572;SDS011;59408;51.032;9.410;2024-01-30T13:20:19;13.32;;;6.80;;
71572;SDS011;59408;51.032;9.410;2024-01-30T13:22:46;13.10;;;7.10;;
71572;SDS011;59408;51.032;9.410;2024-01-30T13:25:14;15.37;;;8.13;;
71572;SDS011;59408;51.032;9.410;2024-01-30T13:27:41;13.15;;;6.70;;
71572;SDS011;59408;51.032;9.410;2024-01-30T13:30:08;14.00;;;7.13;;
71572;SDS011;59408;51.032;9.410;2024-01-30T13:32:35;12.27;;;7.22;;
71572;SDS011;59408;51.032;9.410;2024-01-30T13:35:02;10.98;;;6.05;;
71572;SDS011;59408;51.032;9.410;2024-01-30T13:37:29;10.90;;;5.30;;
71572;SDS011;59408;51.032;9.410;2024-01-30T13:39:56;12.57;;;6.10;;
71572;SDS011;59408;51.032;9.410;2024-01-30T13:42:24;14.35;;;5.30;;
71572;SDS011;59408;51.032;9.410;2024-01-30T13:44:51;12.35;;;5.90;;
71572;SDS011;59408;51.032;9.410;2024-01-30T13:47:17;11.00;;;5.30;;
71572;SDS011;59408;51.032;9.410;2024-01-30T13:49:44;9.90;;;5.00;;
71572;SDS011;59408;51.032;9.410;2024-01-30T13:52:11;9.63;;;4.75;;
71572;SDS011;59408;51.032;9.410;2024-01-30T13:54:37;12.13;;;5.50;;
71572;SDS011;59408;51.032;9.410;2024-01-30T13:57:04;10.15;;;5.00;;
71572;SDS011;59408;51.032;9.410;2024-01-30T13:59:32;11.88;;;5.35;;
71572;SDS011;59408;51.032;9.410;2024-01-30T14:01:58;9.83;;;5.20;;
71572;SDS011;59408;51.032;9.410;2024-01-30T14:04:25;11.40;;;5.50;;
71572;SDS011;59408;51.032;9.410;2024-01-30T14:06:52;11.00;;;5.43;;
71572;SDS011;59408;51.032;9.410;2024-01-30T14:09:29;11.07;;;5.15;;
71572;SDS011;59408;51.032;9.410;2024-01-30T14:11:56;10.55;;;5.85;;
71572;SDS011;59408;51.032;9.410;2024-01-30T14:14:22;11.60;;;6.20;;
71572;SDS011;59408;51.032;9.410;2024-01-30T14:16:50;11.30;;;6.18;;
71572;SDS011;59408;51.032;9.410;2024-01-30T14:19:17;11.30;;;5.57;;
71572;SDS011;59408;51.032;9.410;2024-01-30T14:21:43;12.48;;;6.00;;
71572;SDS011;59408;51.032;9.410;2024-01-30T14:24:10;11.43;;;6.00;;
71572;SDS011;59408;51.032;9.410;2024-01-30T14:26:36;10.53;;;5.13;;
71572;SDS011;59408;51.032;9.410;2024-01-30T14:29:03;11.40;;;5.50;;
71572;SDS011;59408;51.032;9.410;2024-01-30T14:31:29;12.95;;;6.03;;